sensor_id;sensor_type;location;lat;lon;timestamp;pressure;altitude;pressure_sealevel;temperature;humidity
59240;BME280;45010;53.640;10.578;2023-02-04T00:01:25;102048.47;;;25.20;33.18
59240;BME280;45010;53.640;10.578;2023-02-04T00:04:26;102058.16;;;25.21;33.23
59240;BME280;45010;53.640;10.578;2023-02-04T00:07:26;102063.50;;;25.21;33.42
59240;BME280;45010;53.640;10.578;2023-02-04T00:10:26;102069.63;;;25.21;33.44
59240;BME280;45010;53.640;10.578;2023-02-04T00:13:27;102088.31;;;25.21;33.15
59240;BME280;45010;53.640;10.578;2023-02-04T00:16:27;102098.19;;;25.21;33.34
59240;BME280;45010;53.640;10.578;2023-02-04T00:19:27;102099.84;;;25.22;33.32
59240;BME280;45010;53.640;10.578;2023-02-04T00:22:27;102108.66;;;25.22;33.27
59240;BME280;45010;53.640;10.578;2023-02-04T00:25:28;102111.31;;;25.22;33.15
59240;BME280;45010;53.640;10.578;2023-02-04T00:28:28;102117.69;;;25.21;33.29
59240;BME280;45010;53.640;10.578;2023-02-04T00:31:29;102123.88;;;25.22;33.21
59240;BME280;45010;53.640;10.578;2023-02-04T00:34:30;102106.78;;;25.09;33.21
59240;BME280;45010;53.640;10.578;2023-02-04T00:37:30;102146.88;;;25.23;33.28
59240;BME280;45010;53.640;10.578;2023-02-04T00:40:31;102153.84;;;25.24;33.30
59240;BME280;45010;53.640;10.578;2023-02-04T00:43:32;102154.88;;;25.23;33.15
59240;BME280;45010;53.640;10.578;2023-02-04T00:46:32;102155.25;;;25.20;33.08
59240;BME280;45010;53.640;10.578;2023-02-04T00:49:33;102162.28;;;25.21;33.22
59240;BME280;45010;53.640;10.578;2023-02-04T00:52:33;102161.84;;;25.24;32.94
59240;BME280;45010;53.640;10.578;2023-02-04T00:55:34;102177.06;;;25.23;33.14
59240;BME280;45010;53.640;10.578;2023-02-04T00:58:34;102180.53;;;25.24;33.06
59240;BME280;45010;53.640;10.578;2023-02-04T01:01:35;102163.88;;;25.08;32.83
59240;BME280;45010;53.640;10.578;2023-02-04T01:04:35;102199.66;;;25.21;32.97
59240;BME280;45010;53.640;10.578;2023-02-04T01:07:36;102200.03;;;25.18;32.89
59240;BME280;45010;53.640;10.578;2023-02-04T01:10:36;102221.00;;;25.21;32.88
59240;BME280;45010;53.640;10.578;2023-02-04T01:13:36;102227.56;;;25.18;33.22
59240;BME280;45010;53.640;10.578;2023-02-04T01:16:37;102234.13;;;25.16;32.83
59240;BME280;45010;53.640;10.578;2023-02-04T01:19:37;102250.53;;;25.12;32.93
59240;BME280;45010;53.640;10.578;2023-02-04T01:22:37;102256.28;;;25.09;32.77
59240;BME280;45010;53.640;10.578;2023-02-04T01:25:38;102276.38;;;25.05;32.71
59240;BME280;45010;53.640;10.578;2023-02-04T01:28:38;102281.09;;;25.03;32.91
59240;BME280;45010;53.640;10.578;2023-02-04T01:31:38;102292.78;;;25.02;32.78
59240;BME280;45010;53.640;10.578;2023-02-04T01:34:39;102288.59;;;24.93;32.81
59240;BME280;45010;53.640;10.578;2023-02-04T01:37:39;102307.91;;;24.95;32.91
59240;BME280;45010;53.640;10.578;2023-02-04T01:40:40;102297.41;;;24.87;32.96
59240;BME280;45010;53.640;10.578;2023-02-04T01:43:41;102292.19;;;24.78;32.84
59240;BME280;45010;53.640;10.578;2023-02-04T01:46:41;102309.09;;;24.85;33.09
59240;BME280;45010;53.640;10.578;2023-02-04T01:49:42;102313.53;;;24.78;32.81
59240;BME280;45010;53.640;10.578;2023-02-04T01:52:43;102306.03;;;24.67;32.94
59240;BME280;45010;53.640;10.578;2023-02-04T01:55:45;102317.97;;;24.71;33.06
59240;BME280;45010;53.640;10.578;2023-02-04T01:58:46;102295.72;;;24.57;33.08
59240;BME280;45010;53.640;10.578;2023-02-04T02:01:49;102325.97;;;24.71;33.06
59240;BME280;45010;53.640;10.578;2023-02-04T02:04:50;102326.38;;;24.68;33.28
59240;BME280;45010;53.640;10.578;2023-02-04T02:07:52;102333.50;;;24.61;32.95
59240;BME280;45010;53.640;10.578;2023-02-04T02:10:53;102344.78;;;24.63;33.04
59240;BME280;45010;53.640;10.578;2023-02-04T02:13:53;102353.19;;;24.60;33.16
59240;BME280;45010;53.640;10.578;2023-02-04T02:16:53;102351.72;;;24.57;33.03
59240;BME280;45010;53.640;10.578;2023-02-04T02:19:54;102366.25;;;24.54;33.09
59240;BME280;45010;53.640;10.578;2023-02-04T02:26:22;102370.31;;;24.50;33.33
59240;BME280;45010;53.640;10.578;2023-02-04T02:29:23;102372.38;;;24.48;33.17
59240;BME280;45010;53.640;10.578;2023-02-04T02:32:24;102388.72;;;24.45;33.09
59240;BME280;45010;53.640;10.578;2023-02-04T02:35:25;102386.63;;;24.40;33.15
59240;BME280;45010;53.640;10.578;2023-02-04T02:38:25;102394.47;;;24.42;33.21
59240;BME280;45010;53.640;10.578;2023-02-04T02:41:26;102412.47;;;24.40;33.17
59240;BME280;45010;53.640;10.578;2023-02-04T02:44:26;102412.59;;;24.31;33.29
59240;BME280;45010;53.640;10.578;2023-02-04T02:47:27;102423.06;;;24.33;33.13
59240;BME280;45010;53.640;10.578;2023-02-04T02:50:29;102407.81;;;24.27;33.30
59240;BME280;45010;53.640;10.578;2023-02-04T02:53:30;102424.28;;;24.30;33.23
59240;BME280;45010;53.640;10.578;2023-02-04T02:56:31;102437.78;;;24.29;33.33
59240;BME280;45010;53.640;10.578;2023-02-04T02:59:31;102442.66;;;24.25;33.45
59240;BME280;45010;53.640;10.578;2023-02-04T03:02:32;102444.66;;;24.23;33.32
59240;BME280;45010;53.640;10.578;2023-02-04T03:05:35;102451.22;;;24.21;33.24
59240;BME280;45010;53.640;10.578;2023-02-04T03:08:37;102432.06;;;24.02;33.28
59240;BME280;45010;53.640;10.578;2023-02-04T03:11:38;102458.50;;;24.12;33.37
59240;BME280;45010;53.640;10.578;2023-02-04T03:14:39;102461.63;;;24.15;33.35
59240;BME280;45010;53.640;10.578;2023-02-04T03:17:40;102461.16;;;24.12;33.28
59240;BME280;45010;53.640;10.578;2023-02-04T03:20:41;102451.69;;;23.94;33.34
59240;BME280;45010;53.640;10.578;2023-02-04T03:23:41;102485.50;;;24.09;33.49
59240;BME280;45010;53.640;10.578;2023-02-04T03:26:42;102489.19;;;24.08;33.15
59240;BME280;45010;53.640;10.578;2023-02-04T03:29:43;102501.00;;;24.05;33.42
59240;BME280;45010;53.640;10.578;2023-02-04T03:32:44;102511.84;;;24.03;33.56
59240;BME280;45010;53.640;10.578;2023-02-04T03:35:44;102506.63;;;23.95;33.36
59240;BME280;45010;53.640;10.578;2023-02-04T03:38:44;102526.75;;;23.98;33.38
59240;BME280;45010;53.640;10.578;2023-02-04T03:41:45;102541.91;;;23.97;33.23
59240;BME280;45010;53.640;10.578;2023-02-04T03:44:45;102543.94;;;23.95;33.56
59240;BME280;45010;53.640;10.578;2023-02-04T03:47:45;102545.97;;;23.93;33.37
59240;BME280;45010;53.640;10.578;2023-02-04T03:50:46;102554.13;;;23.91;33.72
59240;BME280;45010;53.640;10.578;2023-02-04T03:53:46;102556.97;;;23.90;33.59
59240;BME280;45010;53.640;10.578;2023-02-04T03:56:46;102559.81;;;23.88;33.53
59240;BME280;45010;53.640;10.578;2023-02-04T03:59:47;102562.38;;;23.82;33.27
59240;BME280;45010;53.640;10.578;2023-02-04T04:02:47;102590.31;;;23.86;33.77
59240;BME280;45010;53.640;10.578;2023-02-04T04:05:47;102597.47;;;23.85;33.47
59240;BME280;45010;53.640;10.578;2023-02-04T04:08:48;102609.34;;;23.83;33.72
59240;BME280;45010;53.640;10.578;2023-02-04T04:11:48;102621.00;;;23.82;33.77
59240;BME280;45010;53.640;10.578;2023-02-04T04:14:48;102632.63;;;23.81;33.83
59240;BME280;45010;53.640;10.578;2023-02-04T04:17:49;102629.88;;;23.74;33.59
59240;BME280;45010;53.640;10.578;2023-02-04T04:20:49;102654.31;;;23.77;33.73
59240;BME280;45010;53.640;10.578;2023-02-04T04:23:49;102660.84;;;23.75;33.55
59240;BME280;45010;53.640;10.578;2023-02-04T04:26:50;102665.31;;;23.74;34.08
59240;BME280;45010;53.640;10.578;2023-02-04T04:29:50;102654.25;;;23.62;33.81
59240;BME280;45010;53.640;10.578;2023-02-04T04:32:51;102675.50;;;23.71;33.70
59240;BME280;45010;53.640;10.578;2023-02-04T04:35:51;102673.03;;;23.69;33.71
59240;BME280;45010;53.640;10.578;2023-02-04T04:38:51;102659.28;;;23.57;33.92
59240;BME280;45010;53.640;10.578;2023-02-04T04:41:51;102666.41;;;23.65;33.86
59240;BME280;45010;53.640;10.578;2023-02-04T04:44:52;102671.91;;;23.63;33.77
59240;BME280;45010;53.640;10.578;2023-02-04T04:47:52;102657.78;;;23.63;33.99
59240;BME280;45010;53.640;10.578;2023-02-04T04:50:53;102659.75;;;23.61;34.06
59240;BME280;45010;53.640;10.578;2023-02-04T04:53:53;102665.09;;;23.61;33.92
59240;BME280;45010;53.640;10.578;2023-02-04T04:56:53;102671.59;;;23.58;33.86
59240;BME280;45010;53.640;10.578;2023-02-04T04:59:53;102641.59;;;23.41;34.05
59240;BME280;45010;53.640;10.578;2023-02-04T05:02:54;102679.75;;;23.57;34.26
59240;BME280;45010;53.640;10.578;2023-02-04T05:05:54;102671.97;;;23.55;34.22
59240;BME280;45010;53.640;10.578;2023-02-04T05:08:55;102687.09;;;23.55;33.90
59240;BME280;45010;53.640;10.578;2023-02-04T05:11:55;102691.63;;;23.54;34.25
59240;BME280;45010;53.640;10.578;2023-02-04T05:14:55;102706.75;;;23.54;34.18
59240;BME280;45010;53.640;10.578;2023-02-04T05:17:56;102702.44;;;23.53;34.27
59240;BME280;45010;53.640;10.578;2023-02-04T05:20:57;102705.09;;;23.53;34.02
59240;BME280;45010;53.640;10.578;2023-02-04T05:23:57;102703.44;;;23.51;34.09
59240;BME280;45010;53.640;10.578;2023-02-04T05:26:58;102705.44;;;23.49;34.35
59240;BME280;45010;53.640;10.578;2023-02-04T05:29:58;102719.75;;;23.48;34.45
59240;BME280;45010;53.640;10.578;2023-02-04T05:32:58;102718.94;;;23.48;34.19
59240;BME280;45010;53.640;10.578;2023-02-04T05:35:59;102723.44;;;23.47;34.44
59240;BME280;45010;53.640;10.578;2023-02-04T05:38:59;102733.25;;;23.47;34.09
59240;BME280;45010;53.640;10.578;2023-02-04T05:41:59;102740.41;;;23.46;34.12
59240;BME280;45010;53.640;10.578;2023-02-04T05:45:00;102745.91;;;23.45;34.22
59240;BME280;45010;53.640;10.578;2023-02-04T05:48:00;102744.41;;;23.42;34.48
59240;BME280;45010;53.640;10.578;2023-02-04T05:51:00;102762.91;;;23.44;34.30
59240;BME280;45010;53.640;10.578;2023-02-04T05:54:01;102763.06;;;23.42;34.43
59240;BME280;45010;53.640;10.578;2023-02-04T05:57:01;102773.72;;;23.42;34.21
59240;BME280;45010;53.640;10.578;2023-02-04T06:00:02;102779.03;;;23.42;34.14
59240;BME280;45010;53.640;10.578;2023-02-04T06:03:02;102794.16;;;23.42;34.45
59240;BME280;45010;53.640;10.578;2023-02-04T06:06:03;102798.69;;;23.41;34.24
59240;BME280;45010;53.640;10.578;2023-02-04T06:09:03;102802.53;;;23.38;34.51
59240;BME280;45010;53.640;10.578;2023-02-04T06:12:04;102819.16;;;23.41;34.24
59240;BME280;45010;53.640;10.578;2023-02-04T06:15:05;102813.00;;;23.40;34.38
59240;BME280;45010;53.640;10.578;2023-02-04T06:18:06;102814.00;;;23.39;34.55
59240;BME280;45010;53.640;10.578;2023-02-04T06:21:06;102821.16;;;23.38;34.38
59240;BME280;45010;53.640;10.578;2023-02-04T06:24:06;102822.16;;;23.37;34.47
59240;BME280;45010;53.640;10.578;2023-02-04T06:27:07;102827.31;;;23.39;34.53
59240;BME280;45010;53.640;10.578;2023-02-04T06:30:08;102839.97;;;23.37;34.46
59240;BME280;45010;53.640;10.578;2023-02-04T06:33:09;102838.31;;;23.36;34.49
59240;BME280;45010;53.640;10.578;2023-02-04T06:36:10;102843.63;;;23.36;34.72
59240;BME280;45010;53.640;10.578;2023-02-04T06:39:10;102845.66;;;23.34;34.24
59240;BME280;45010;53.640;10.578;2023-02-04T06:42:10;102848.97;;;23.36;34.69
59240;BME280;45010;53.640;10.578;2023-02-04T06:45:11;102848.09;;;23.35;34.66
59240;BME280;45010;53.640;10.578;2023-02-04T06:48:11;102866.75;;;23.35;34.28
59240;BME280;45010;53.640;10.578;2023-02-04T06:51:11;102868.59;;;23.35;34.34
59240;BME280;45010;53.640;10.578;2023-02-04T06:54:12;102882.91;;;23.34;34.35
59240;BME280;45010;53.640;10.578;2023-02-04T06:57:12;102883.72;;;23.34;34.73
59240;BME280;45010;53.640;10.578;2023-02-04T07:00:13;102888.91;;;23.36;34.46
59240;BME280;45010;53.640;10.578;2023-02-04T07:03:14;102882.91;;;23.34;34.68
59240;BME280;45010;53.640;10.578;2023-02-04T07:06:14;102895.22;;;23.35;34.59
59240;BME280;45010;53.640;10.578;2023-02-04T07:09:14;102898.91;;;23.34;34.82
59240;BME280;45010;53.640;10.578;2023-02-04T07:12:15;102909.53;;;23.34;34.35
59240;BME280;45010;53.640;10.578;2023-02-04T07:15:16;102897.25;;;23.33;34.84
59240;BME280;45010;53.640;10.578;2023-02-04T07:18:17;102902.56;;;23.33;34.84
59240;BME280;45010;53.640;10.578;2023-02-04T07:21:18;102907.88;;;23.33;34.77
59240;BME280;45010;53.640;10.578;2023-02-04T07:24:19;102912.84;;;23.28;34.96
59240;BME280;45010;53.640;10.578;2023-02-04T07:27:19;102927.50;;;23.32;34.60
59240;BME280;45010;53.640;10.578;2023-02-04T07:30:20;102930.16;;;23.32;34.86
59240;BME280;45010;53.640;10.578;2023-02-04T07:33:20;102940.13;;;23.30;34.92
59240;BME280;45010;53.640;10.578;2023-02-04T07:36:20;102936.50;;;23.31;34.82
59240;BME280;45010;53.640;10.578;2023-02-04T07:39:21;102947.97;;;23.31;34.75
59240;BME280;45010;53.640;10.578;2023-02-04T07:42:21;102948.47;;;23.27;34.60
59240;BME280;45010;53.640;10.578;2023-02-04T07:45:21;102946.13;;;23.23;34.61
59240;BME280;45010;53.640;10.578;2023-02-04T07:48:22;102966.75;;;23.30;35.21
59240;BME280;45010;53.640;10.578;2023-02-04T07:51:22;102966.63;;;23.31;35.16
59240;BME280;45010;53.640;10.578;2023-02-04T07:54:23;102973.44;;;23.34;35.09
59240;BME280;45010;53.640;10.578;2023-02-04T07:57:23;102972.28;;;23.36;35.02
59240;BME280;45010;53.640;10.578;2023-02-04T08:00:23;102979.25;;;23.37;35.44
59240;BME280;45010;53.640;10.578;2023-02-04T08:03:24;102983.44;;;23.40;35.50
59240;BME280;45010;53.640;10.578;2023-02-04T08:06:24;102986.75;;;23.42;35.43
59240;BME280;45010;53.640;10.578;2023-02-04T08:09:24;102991.75;;;23.45;35.27
59240;BME280;45010;53.640;10.578;2023-02-04T08:12:26;102986.91;;;23.49;35.43
59240;BME280;45010;53.640;10.578;2023-02-04T08:15:26;102996.41;;;23.51;34.92
59240;BME280;45010;53.640;10.578;2023-02-04T08:18:27;102983.06;;;23.43;34.90
59240;BME280;45010;53.640;10.578;2023-02-04T08:21:28;103003.03;;;23.56;35.27
59240;BME280;45010;53.640;10.578;2023-02-04T08:24:28;103005.38;;;23.59;35.12
59240;BME280;45010;53.640;10.578;2023-02-04T08:27:28;103010.34;;;23.62;34.78
59240;BME280;45010;53.640;10.578;2023-02-04T08:30:28;103020.03;;;23.63;35.23
59240;BME280;45010;53.640;10.578;2023-02-04T08:33:29;103019.69;;;23.66;35.01
59240;BME280;45010;53.640;10.578;2023-02-04T08:36:29;103017.50;;;23.70;34.58
59240;BME280;45010;53.640;10.578;2023-02-04T08:39:30;103007.50;;;23.72;34.56
59240;BME280;45010;53.640;10.578;2023-02-04T08:42:31;102993.41;;;23.63;34.80
59240;BME280;45010;53.640;10.578;2023-02-04T08:45:33;103021.34;;;23.75;34.37
59240;BME280;45010;53.640;10.578;2023-02-04T08:48:34;103015.84;;;23.77;34.17
59240;BME280;45010;53.640;10.578;2023-02-04T08:51:34;103020.00;;;23.80;34.11
59240;BME280;45010;53.640;10.578;2023-02-04T08:54:34;103018.81;;;23.82;33.91
59240;BME280;45010;53.640;10.578;2023-02-04T08:57:35;103022.97;;;23.85;33.78
59240;BME280;45010;53.640;10.578;2023-02-04T09:00:35;103013.84;;;23.79;34.10
59240;BME280;45010;53.640;10.578;2023-02-04T09:03:36;103029.31;;;23.84;33.91
59240;BME280;45010;53.640;10.578;2023-02-04T09:06:37;103043.63;;;23.91;34.09
59240;BME280;45010;53.640;10.578;2023-02-04T09:09:37;103051.09;;;23.96;34.08
59240;BME280;45010;53.640;10.578;2023-02-04T09:12:37;103053.59;;;23.97;33.62
59240;BME280;45010;53.640;10.578;2023-02-04T09:15:38;103056.09;;;23.99;33.40
59240;BME280;45010;53.640;10.578;2023-02-04T09:18:38;103056.94;;;23.99;33.60
59240;BME280;45010;53.640;10.578;2023-02-04T09:21:38;103052.59;;;23.98;33.57
59240;BME280;45010;53.640;10.578;2023-02-04T09:24:39;103057.94;;;23.98;33.37
59240;BME280;45010;53.640;10.578;2023-02-04T09:27:39;103061.94;;;24.02;33.98
59240;BME280;45010;53.640;10.578;2023-02-04T09:30:40;103056.28;;;23.89;31.82
59240;BME280;45010;53.640;10.578;2023-02-04T09:33:41;103087.25;;;23.98;31.12
59240;BME280;45010;53.640;10.578;2023-02-04T09:36:41;103085.94;;;23.94;30.80
59240;BME280;45010;53.640;10.578;2023-02-04T09:39:41;103094.94;;;23.93;30.90
59240;BME280;45010;53.640;10.578;2023-02-04T09:42:43;103079.59;;;23.87;31.38
59240;BME280;45010;53.640;10.578;2023-02-04T09:45:47;103090.44;;;23.94;31.69
59240;BME280;45010;53.640;10.578;2023-02-04T09:48:48;103082.94;;;23.89;31.81
59240;BME280;45010;53.640;10.578;2023-02-04T09:51:49;103097.41;;;23.95;32.41
59240;BME280;45010;53.640;10.578;2023-02-04T09:54:50;103105.25;;;23.96;32.87
59240;BME280;45010;53.640;10.578;2023-02-04T09:57:50;103104.25;;;23.97;32.66
59240;BME280;45010;53.640;10.578;2023-02-04T10:00:57;103087.94;;;23.92;33.04
59240;BME280;45010;53.640;10.578;2023-02-04T10:04:00;103074.63;;;23.84;32.98
59240;BME280;45010;53.640;10.578;2023-02-04T10:07:00;103108.25;;;24.01;33.01
59240;BME280;45010;53.640;10.578;2023-02-04T10:10:02;103099.25;;;24.02;33.26
59240;BME280;45010;53.640;10.578;2023-02-04T10:13:03;103107.09;;;24.04;32.92
59240;BME280;45010;53.640;10.578;2023-02-04T10:16:19;103097.25;;;23.96;31.49
59240;BME280;45010;53.640;10.578;2023-02-04T10:19:20;103116.91;;;24.03;30.57
59240;BME280;45010;53.640;10.578;2023-02-04T10:22:21;103119.72;;;24.02;29.68
59240;BME280;45010;53.640;10.578;2023-02-04T10:25:24;103112.25;;;23.97;28.16
59240;BME280;45010;53.640;10.578;2023-02-04T10:28:34;103105.94;;;23.90;27.94
59240;BME280;45010;53.640;10.578;2023-02-04T10:31:37;103120.25;;;23.89;28.69
59240;BME280;45010;53.640;10.578;2023-02-04T10:34:38;103107.44;;;23.84;29.31
59240;BME280;45010;53.640;10.578;2023-02-04T10:37:38;103119.91;;;23.92;29.35
59240;BME280;45010;53.640;10.578;2023-02-04T10:40:39;103121.59;;;23.93;29.74
59240;BME280;45010;53.640;10.578;2023-02-04T10:43:40;103122.25;;;23.95;30.14
59240;BME280;45010;53.640;10.578;2023-02-04T10:46:40;103119.09;;;23.91;30.48
59240;BME280;45010;53.640;10.578;2023-02-04T10:49:50;103128.59;;;23.94;30.45
59240;BME280;45010;53.640;10.578;2023-02-04T10:52:53;103126.91;;;24.01;30.76
59240;BME280;45010;53.640;10.578;2023-02-04T10:55:55;103139.88;;;24.04;30.76
59240;BME280;45010;53.640;10.578;2023-02-04T10:58:56;103129.22;;;24.04;30.90
59240;BME280;45010;53.640;10.578;2023-02-04T11:01:58;103127.06;;;24.00;30.86
59240;BME280;45010;53.640;10.578;2023-02-04T11:05:00;103128.94;;;24.08;30.99
59240;BME280;45010;53.640;10.578;2023-02-04T11:08:24;103128.41;;;24.04;31.25
59240;BME280;45010;53.640;10.578;2023-02-04T11:11:25;103135.59;;;24.12;31.30
59240;BME280;45010;53.640;10.578;2023-02-04T11:14:28;103122.06;;;24.05;31.24
59240;BME280;45010;53.640;10.578;2023-02-04T11:17:30;103123.25;;;24.11;31.55
59240;BME280;45010;53.640;10.578;2023-02-04T11:20:32;103134.94;;;24.18;31.65
59240;BME280;45010;53.640;10.578;2023-02-04T11:23:34;103125.91;;;24.19;31.54
59240;BME280;45010;53.640;10.578;2023-02-04T11:26:49;103117.59;;;24.14;32.08
59240;BME280;45010;53.640;10.578;2023-02-04T11:29:51;103136.22;;;24.22;31.78
59240;BME280;45010;53.640;10.578;2023-02-04T11:33:04;103124.25;;;24.18;31.96
59240;BME280;45010;53.640;10.578;2023-02-04T11:36:08;103136.59;;;24.19;32.29
59240;BME280;45010;53.640;10.578;2023-02-04T11:39:15;103133.25;;;24.25;32.11
59240;BME280;45010;53.640;10.578;2023-02-04T11:42:40;103116.56;;;24.23;32.00
59240;BME280;45010;53.640;10.578;2023-02-04T11:45:41;103124.88;;;24.28;32.03
59240;BME280;45010;53.640;10.578;2023-02-04T11:48:42;103132.41;;;24.33;32.35
59240;BME280;45010;53.640;10.578;2023-02-04T11:51:43;103141.91;;;24.36;32.14
59240;BME280;45010;53.640;10.578;2023-02-04T11:54:57;103129.22;;;24.38;32.23
59240;BME280;45010;53.640;10.578;2023-02-04T11:57:58;103139.88;;;24.38;31.92
59240;BME280;45010;53.640;10.578;2023-02-04T12:00:58;103125.22;;;24.34;32.15
59240;BME280;45010;53.640;10.578;2023-02-04T12:04:01;103136.84;;;24.41;32.05
59240;BME280;45010;53.640;10.578;2023-02-04T12:07:02;103138.72;;;24.40;32.25
59240;BME280;45010;53.640;10.578;2023-02-04T12:13:21;103154.50;;;24.50;32.20
59240;BME280;45010;53.640;10.578;2023-02-04T12:16:22;103152.84;;;24.49;32.18
59240;BME280;45010;53.640;10.578;2023-02-04T12:19:23;103157.50;;;24.55;31.99
59240;BME280;45010;53.640;10.578;2023-02-04T12:22:23;103166.16;;;24.57;32.05
59240;BME280;45010;53.640;10.578;2023-02-04T12:25:24;103157.84;;;24.52;32.14
59240;BME280;45010;53.640;10.578;2023-02-04T12:28:26;103146.19;;;24.45;31.95
59240;BME280;45010;53.640;10.578;2023-02-04T12:31:28;103170.16;;;24.62;31.90
59240;BME280;45010;53.640;10.578;2023-02-04T12:34:29;103172.84;;;24.62;31.85
59240;BME280;45010;53.640;10.578;2023-02-04T12:37:29;103166.50;;;24.63;31.77
59240;BME280;45010;53.640;10.578;2023-02-04T12:40:29;103158.84;;;24.60;31.96
59240;BME280;45010;53.640;10.578;2023-02-04T12:43:30;103173.16;;;24.67;31.83
59240;BME280;45010;53.640;10.578;2023-02-04T12:46:30;103177.47;;;24.68;31.95
59240;BME280;45010;53.640;10.578;2023-02-04T12:49:30;103176.47;;;24.69;32.12
59240;BME280;45010;53.640;10.578;2023-02-04T12:52:31;103177.13;;;24.71;32.19
59240;BME280;45010;53.640;10.578;2023-02-04T12:55:31;103181.28;;;24.74;32.20
59240;BME280;45010;53.640;10.578;2023-02-04T12:58:32;103183.78;;;24.75;31.65
59240;BME280;45010;53.640;10.578;2023-02-04T13:01:32;103190.78;;;24.76;31.09
59240;BME280;45010;53.640;10.578;2023-02-04T13:04:32;103184.44;;;24.77;30.57
59240;BME280;45010;53.640;10.578;2023-02-04T13:07:33;103192.44;;;24.77;30.09
59240;BME280;45010;53.640;10.578;2023-02-04T13:10:33;103184.16;;;24.72;29.67
59240;BME280;45010;53.640;10.578;2023-02-04T13:13:33;103193.28;;;24.78;29.55
59240;BME280;45010;53.640;10.578;2023-02-04T13:16:34;103203.97;;;24.78;30.01
59240;BME280;45010;53.640;10.578;2023-02-04T13:19:34;103193.81;;;24.73;29.88
59240;BME280;45010;53.640;10.578;2023-02-04T13:22:35;103201.13;;;24.79;30.07
59240;BME280;45010;53.640;10.578;2023-02-04T13:25:35;103172.84;;;24.62;30.35
59240;BME280;45010;53.640;10.578;2023-02-04T13:28:36;103197.47;;;24.80;30.26
59240;BME280;45010;53.640;10.578;2023-02-04T13:31:36;103200.81;;;24.82;30.10
59240;BME280;45010;53.640;10.578;2023-02-04T13:34:36;103201.81;;;24.81;30.11
59240;BME280;45010;53.640;10.578;2023-02-04T13:37:37;103204.47;;;24.81;30.52
59240;BME280;45010;53.640;10.578;2023-02-04T13:40:37;103196.47;;;24.81;30.56
59240;BME280;45010;53.640;10.578;2023-02-04T13:43:38;103200.81;;;24.82;30.64
59240;BME280;45010;53.640;10.578;2023-02-04T13:46:39;103197.13;;;24.83;30.65
59240;BME280;45010;53.640;10.578;2023-02-04T13:49:39;103198.97;;;24.83;30.86
59240;BME280;45010;53.640;10.578;2023-02-04T13:52:39;103198.13;;;24.82;30.83
59240;BME280;45010;53.640;10.578;2023-02-04T13:55:40;103197.13;;;24.83;30.93
59240;BME280;45010;53.640;10.578;2023-02-04T13:58:40;103199.78;;;24.83;30.88
59240;BME280;45010;53.640;10.578;2023-02-04T14:01:42;103207.81;;;24.83;31.09
59240;BME280;45010;53.640;10.578;2023-02-04T14:04:43;103211.47;;;24.82;30.92
59240;BME280;45010;53.640;10.578;2023-02-04T14:07:43;103209.00;;;24.81;30.51
59240;BME280;45010;53.640;10.578;2023-02-04T14:10:43;103216.31;;;24.79;30.36
59240;BME280;45010;53.640;10.578;2023-02-04T14:13:44;103220.81;;;24.78;30.52
59240;BME280;45010;53.640;10.578;2023-02-04T14:16:44;103223.66;;;24.77;30.82
59240;BME280;45010;53.640;10.578;2023-02-04T14:19:44;103221.00;;;24.77;30.85
59240;BME280;45010;53.640;10.578;2023-02-04T14:22:45;103222.81;;;24.76;30.88
59240;BME280;45010;53.640;10.578;2023-02-04T14:25:45;103224.81;;;24.74;30.81
59240;BME280;45010;53.640;10.578;2023-02-04T14:28:45;103222.31;;;24.72;30.48
59240;BME280;45010;53.640;10.578;2023-02-04T14:31:46;103223.50;;;24.70;30.46
59240;BME280;45010;53.640;10.578;2023-02-04T14:34:46;103218.50;;;24.67;30.52
59240;BME280;45010;53.640;10.578;2023-02-04T14:37:46;103195.19;;;24.52;30.17
59240;BME280;45010;53.640;10.578;2023-02-04T14:40:47;103213.50;;;24.64;29.96
59240;BME280;45010;53.640;10.578;2023-02-04T14:43:47;103206.50;;;24.63;29.80
59240;BME280;45010;53.640;10.578;2023-02-04T14:46:48;103217.53;;;24.60;29.64
59240;BME280;45010;53.640;10.578;2023-02-04T14:49:48;103212.84;;;24.53;29.35
59240;BME280;45010;53.640;10.578;2023-02-04T14:52:49;103228.38;;;24.58;29.60
59240;BME280;45010;53.640;10.578;2023-02-04T14:55:49;103227.53;;;24.57;29.83
59240;BME280;45010;53.640;10.578;2023-02-04T14:58:49;103217.22;;;24.54;29.97
59240;BME280;45010;53.640;10.578;2023-02-04T15:01:50;103228.53;;;24.56;29.99
59240;BME280;45010;53.640;10.578;2023-02-04T15:04:50;103222.34;;;24.56;30.21
59240;BME280;45010;53.640;10.578;2023-02-04T15:07:50;103227.69;;;24.56;30.30
59240;BME280;45010;53.640;10.578;2023-02-04T15:10:51;103223.88;;;24.50;30.51
59240;BME280;45010;53.640;10.578;2023-02-04T15:13:51;103235.88;;;24.54;30.55
59240;BME280;45010;53.640;10.578;2023-02-04T15:16:51;103223.38;;;24.47;30.69
59240;BME280;45010;53.640;10.578;2023-02-04T15:19:52;103240.53;;;24.52;30.62
59240;BME280;45010;53.640;10.578;2023-02-04T15:22:52;103244.22;;;24.51;30.97
59240;BME280;45010;53.640;10.578;2023-02-04T15:25:55;103210.38;;;24.35;30.70
59240;BME280;45010;53.640;10.578;2023-02-04T15:28:56;103231.22;;;24.48;30.86
59240;BME280;45010;53.640;10.578;2023-02-04T15:31:57;103236.56;;;24.48;30.83
59240;BME280;45010;53.640;10.578;2023-02-04T15:34:57;103234.88;;;24.47;30.74
59240;BME280;45010;53.640;10.578;2023-02-04T15:37:58;103229.88;;;24.44;31.08
59240;BME280;45010;53.640;10.578;2023-02-04T15:40:58;103221.56;;;24.39;30.63